createdAt,value
2019-01-23T00:02:40.524Z,19.80
2019-01-23T00:05:32.015Z,19.80
2019-01-23T00:08:24.541Z,19.80
2019-01-23T00:11:16.748Z,19.80
2019-01-23T00:14:14.246Z,19.80
2019-01-23T00:17:06.272Z,19.80
2019-01-23T00:19:58.889Z,19.80
2019-01-23T00:22:51.000Z,19.80
2019-01-23T00:25:42.761Z,19.80
2019-01-23T00:28:42.411Z,19.80
2019-01-23T01:40:12.426Z,19.70
2019-01-23T01:43:02.933Z,19.70
2019-01-23T01:45:55.456Z,19.70
2019-01-23T01:48:48.461Z,19.70
2019-01-23T01:51:40.347Z,19.70
2019-01-23T01:54:34.033Z,19.70
2019-01-23T01:57:28.369Z,19.70
2019-01-23T02:00:22.744Z,19.70
2019-01-23T02:03:15.717Z,19.70
2019-01-23T02:06:08.618Z,19.70
2019-01-23T02:09:01.268Z,19.70
2019-01-23T02:11:54.652Z,19.70
2019-01-23T02:14:47.344Z,19.70
2019-01-23T02:17:41.096Z,19.70
2019-01-23T02:20:39.440Z,19.70
2019-01-23T02:23:38.192Z,19.70
2019-01-23T02:26:30.487Z,19.70
2019-01-23T02:29:22.614Z,19.70
2019-01-23T02:32:14.223Z,19.70
2019-01-23T02:35:06.718Z,19.70
2019-01-23T02:38:01.302Z,19.70
2019-01-23T02:40:54.386Z,19.70
2019-01-23T02:43:46.541Z,19.70
2019-01-23T02:46:40.318Z,19.80
2019-01-23T02:49:33.588Z,19.70
2019-01-23T02:52:27.393Z,19.80
2019-01-23T02:55:35.887Z,19.80
2019-01-23T02:58:40.862Z,19.80
2019-01-23T03:01:39.018Z,19.80
2019-01-23T03:04:31.057Z,19.80
2019-01-23T03:07:24.131Z,19.80
2019-01-23T03:10:20.101Z,19.80
2019-01-23T03:13:19.326Z,19.80
2019-01-23T03:16:10.574Z,19.80
2019-01-23T03:19:04.297Z,19.80
2019-01-23T03:22:08.658Z,19.80
2019-01-23T03:25:00.248Z,19.80
2019-01-23T03:27:55.021Z,19.80
2019-01-23T03:30:49.188Z,19.80
2019-01-23T03:33:40.886Z,19.80
2019-01-23T03:36:32.643Z,19.80
2019-01-23T03:39:25.248Z,19.90
2019-01-23T03:42:24.541Z,19.90
2019-01-23T03:45:19.244Z,19.80
2019-01-23T03:48:15.664Z,19.90
2019-01-23T03:51:08.139Z,19.90
2019-01-23T03:54:00.250Z,19.90
2019-01-23T03:56:52.062Z,19.90
2019-01-23T03:59:45.362Z,19.90
2019-01-23T04:02:39.932Z,19.90
2019-01-23T04:05:34.947Z,19.90
2019-01-23T04:08:28.404Z,20.00
2019-01-23T04:11:23.678Z,20.00
2019-01-23T04:14:15.404Z,20.00
2019-01-23T04:17:08.780Z,20.00
2019-01-23T04:20:01.372Z,20.10
2019-01-23T04:22:53.394Z,20.10
2019-01-23T04:25:49.484Z,20.10
2019-01-23T04:28:44.840Z,20.10
2019-01-23T04:31:39.901Z,20.10
2019-01-23T04:34:35.329Z,20.20
2019-01-23T04:37:26.693Z,20.20
2019-01-23T04:40:20.987Z,20.20
2019-01-23T04:43:14.320Z,20.20
2019-01-23T04:46:07.416Z,20.20
2019-01-23T04:48:59.358Z,20.20
2019-01-23T04:52:13.519Z,20.20
2019-01-23T04:55:05.531Z,20.20
2019-01-23T04:57:59.297Z,20.20
2019-01-23T05:00:52.568Z,20.20
2019-01-23T05:03:48.261Z,20.20
2019-01-23T05:06:42.598Z,20.20
2019-01-23T05:09:36.868Z,20.20
2019-01-23T05:23:15.970Z,20.20
2019-01-23T05:26:12.474Z,20.20
2019-01-23T05:29:06.027Z,20.20
2019-01-23T05:32:10.696Z,20.20
2019-01-23T05:35:02.585Z,20.20
2019-01-23T05:37:54.036Z,20.20
2019-01-23T05:40:45.660Z,20.20
2019-01-23T05:43:36.835Z,20.20
2019-01-23T05:46:31.038Z,20.20
2019-01-23T05:49:22.536Z,20.20
2019-01-23T05:52:19.020Z,20.20
2019-01-23T05:55:11.486Z,20.20
2019-01-23T05:58:03.796Z,20.30
2019-01-23T06:00:56.516Z,20.30
2019-01-23T06:03:58.022Z,20.30
2019-01-23T06:06:49.950Z,20.30
2019-01-23T06:09:42.421Z,20.30
2019-01-23T06:12:36.328Z,20.30
2019-01-23T06:15:28.270Z,20.30
2019-01-23T06:18:21.284Z,20.30
2019-01-23T06:21:15.084Z,20.30
2019-01-23T06:24:08.752Z,20.40
2019-01-23T06:27:01.866Z,20.40
2019-01-23T06:29:53.883Z,20.40
2019-01-23T06:32:55.904Z,20.40
2019-01-23T06:35:50.208Z,20.40
2019-01-23T06:38:43.171Z,20.40
2019-01-23T06:41:37.132Z,20.40
2019-01-23T06:44:29.346Z,20.40
2019-01-23T07:03:50.988Z,20.40
2019-01-23T07:06:47.220Z,20.40
2019-01-23T07:09:47.271Z,20.50
2019-01-23T07:12:49.998Z,20.50
2019-01-23T07:19:41.665Z,20.50
2019-01-23T07:23:05.146Z,20.50
2019-01-23T07:26:25.839Z,20.50
2019-01-23T07:29:22.006Z,20.50
2019-01-23T07:32:16.707Z,20.50
2019-01-23T07:35:11.344Z,20.60
2019-01-23T07:38:04.214Z,20.60
2019-01-23T07:40:56.523Z,20.60
2019-01-23T07:54:43.331Z,20.50
2019-01-23T07:57:35.020Z,20.50
2019-01-23T08:00:31.283Z,20.50
2019-01-23T08:03:20.294Z,20.50
2019-01-23T08:06:12.078Z,20.50
2019-01-23T08:09:03.750Z,20.50
2019-01-23T08:11:57.486Z,20.40
2019-01-23T08:14:49.297Z,20.40
2019-01-23T08:17:40.741Z,20.40
2019-01-23T08:20:32.134Z,20.40
2019-01-23T08:23:24.099Z,20.40
2019-01-23T08:26:15.994Z,20.40
2019-01-23T08:29:07.826Z,20.40
2019-01-23T08:31:59.406Z,20.40
2019-01-23T08:34:53.053Z,20.40
2019-01-23T08:37:44.791Z,20.30
2019-01-23T08:40:37.188Z,20.40
2019-01-23T08:43:28.993Z,20.30
2019-01-23T08:46:20.856Z,20.30
2019-01-23T08:49:13.618Z,20.30
2019-01-23T08:52:06.113Z,20.30
2019-01-23T08:54:58.904Z,20.30
2019-01-23T08:57:52.754Z,20.40
2019-01-23T09:00:46.787Z,20.30
2019-01-23T09:03:39.702Z,20.40
2019-01-23T09:06:33.530Z,20.40
2019-01-23T09:09:26.800Z,20.60
2019-01-23T09:12:22.318Z,20.70
2019-01-23T09:15:17.135Z,20.60
2019-01-23T09:18:10.243Z,20.60
2019-01-23T09:21:11.399Z,20.60
2019-01-23T09:24:21.539Z,20.60
2019-01-23T09:27:39.537Z,20.60
2019-01-23T09:34:09.817Z,20.60
2019-01-23T09:37:21.464Z,20.60
2019-01-23T09:40:31.324Z,20.70
2019-01-23T09:43:47.209Z,20.70
2019-01-23T09:46:50.018Z,20.80
2019-01-23T09:50:05.457Z,20.80
2019-01-23T09:53:09.452Z,20.90
2019-01-23T09:56:11.891Z,21.00
2019-01-23T09:59:07.164Z,20.90
2019-01-23T10:02:26.139Z,21.00
2019-01-23T10:05:23.066Z,21.20
2019-01-23T10:08:17.053Z,21.30
2019-01-23T10:11:09.935Z,21.30
2019-01-23T10:14:03.648Z,21.30
2019-01-23T10:16:56.366Z,21.20
2019-01-23T10:19:49.333Z,21.20
2019-01-23T10:22:43.123Z,21.30
2019-01-23T10:25:36.733Z,21.40
2019-01-23T10:28:29.570Z,21.50
2019-01-23T10:31:23.808Z,21.80
2019-01-23T10:34:18.110Z,21.80
2019-01-23T10:37:11.598Z,21.60
2019-01-23T10:40:06.210Z,21.70
2019-01-23T10:42:59.832Z,22.00
2019-01-23T10:45:52.318Z,22.00
2019-01-23T10:48:49.739Z,21.80
2019-01-23T10:51:43.004Z,21.60
2019-01-23T10:54:37.810Z,21.50
2019-01-23T10:57:29.987Z,21.40
2019-01-23T11:00:22.606Z,21.40
2019-01-23T11:03:15.423Z,21.40
2019-01-23T11:06:07.880Z,21.30
2019-01-23T11:08:59.623Z,21.30
2019-01-23T11:11:52.519Z,21.30
2019-01-23T11:14:45.946Z,21.30
2019-01-23T11:17:40.677Z,21.30
2019-01-23T11:20:34.489Z,21.30
2019-01-23T11:23:28.838Z,21.20
2019-01-23T11:26:21.873Z,21.30
2019-01-23T11:29:14.506Z,21.30
2019-01-23T11:32:08.523Z,21.20
2019-01-23T11:35:01.136Z,21.20
2019-01-23T11:37:53.807Z,21.20
2019-01-23T11:40:46.316Z,21.20
2019-01-23T11:43:39.123Z,21.20
2019-01-23T11:46:36.279Z,21.20
2019-01-23T11:49:29.171Z,21.20
2019-01-23T11:52:22.720Z,21.20
2019-01-23T11:55:15.024Z,21.10
2019-01-23T11:58:06.415Z,21.10
2019-01-23T13:05:14.179Z,20.90
2019-01-23T13:08:07.486Z,20.90
2019-01-23T13:10:59.659Z,20.80
2019-01-23T13:13:51.530Z,20.80
2019-01-23T13:16:44.079Z,20.80
2019-01-23T13:19:35.393Z,20.80
2019-01-23T13:22:27.510Z,20.80
2019-01-23T13:25:19.665Z,20.80
2019-01-23T13:28:12.597Z,20.80
2019-01-23T13:31:04.455Z,20.80
2019-01-23T13:33:55.891Z,20.80
2019-01-23T13:36:46.902Z,20.80
2019-01-23T13:39:39.337Z,20.70
2019-01-23T13:42:30.603Z,20.80
2019-01-23T13:45:23.978Z,20.70
2019-01-23T13:48:16.840Z,20.70
2019-01-23T13:51:09.414Z,20.70
2019-01-23T13:54:01.602Z,20.70
2019-01-23T13:56:54.719Z,20.70
2019-01-23T13:59:46.097Z,20.70
2019-01-23T14:02:38.474Z,20.70
2019-01-23T14:05:32.949Z,20.70
2019-01-23T14:08:33.414Z,20.70
2019-01-23T14:11:25.828Z,20.70
2019-01-23T14:14:17.569Z,20.70
2019-01-23T14:17:10.352Z,20.60
2019-01-23T14:20:02.191Z,20.70
2019-01-23T14:22:53.568Z,20.70
2019-01-23T14:25:48.381Z,20.60
2019-01-23T14:28:41.292Z,20.60
2019-01-23T14:31:33.301Z,20.60
2019-01-23T14:44:20.173Z,20.60
2019-01-23T14:47:12.243Z,20.60
2019-01-23T14:50:05.129Z,20.60
2019-01-23T14:53:03.263Z,20.60
2019-01-23T14:55:56.150Z,20.60
2019-01-23T14:58:48.059Z,20.60
2019-01-23T15:01:40.553Z,20.60
2019-01-23T15:04:33.479Z,20.60
2019-01-23T15:07:25.166Z,20.60
2019-01-23T15:10:23.842Z,20.60
2019-01-23T15:13:16.553Z,20.60
2019-01-23T15:16:09.277Z,20.60
2019-01-23T15:19:03.895Z,20.60
2019-01-23T15:21:55.765Z,20.60
2019-01-23T15:24:51.347Z,20.60
2019-01-23T15:27:43.037Z,20.60
2019-01-23T15:30:41.238Z,20.60
2019-01-23T15:33:33.013Z,20.60
2019-01-23T15:36:25.112Z,20.60
2019-01-23T15:39:18.715Z,20.60
2019-01-23T15:42:10.359Z,20.60
2019-01-23T15:45:02.865Z,20.60
2019-01-23T15:47:55.395Z,20.60
2019-01-23T15:50:47.519Z,20.60
2019-01-23T15:53:39.628Z,20.60
2019-01-23T15:56:31.270Z,20.60
2019-01-23T15:59:25.517Z,20.60
2019-01-23T16:02:27.850Z,20.60
2019-01-23T16:05:19.666Z,20.60
2019-01-23T16:08:12.735Z,20.60
2019-01-23T16:11:04.899Z,20.60
2019-01-23T16:13:58.000Z,20.60
2019-01-23T16:16:50.665Z,20.60
2019-01-23T16:19:44.712Z,20.60
2019-01-23T16:22:36.885Z,20.60
2019-01-23T16:25:44.439Z,20.60
2019-01-23T16:28:53.629Z,20.50
2019-01-23T16:31:45.072Z,20.50
2019-01-23T16:34:38.626Z,20.60
2019-01-23T16:37:30.057Z,20.60
2019-01-23T16:40:22.105Z,20.50
2019-01-23T16:43:50.941Z,20.60
2019-01-23T16:46:55.062Z,20.50
2019-01-23T16:50:00.492Z,20.60
2019-01-23T16:53:17.868Z,20.60
2019-01-23T16:56:31.307Z,20.60
2019-01-23T16:59:50.156Z,20.60
2019-01-23T17:03:23.008Z,20.50
2019-01-23T17:06:56.587Z,20.60
2019-01-23T17:10:20.922Z,20.60
2019-01-23T17:13:36.086Z,20.50
2019-01-23T17:16:40.736Z,20.50
2019-01-23T17:19:59.027Z,20.50
2019-01-23T17:22:57.308Z,20.50
2019-01-23T17:26:02.171Z,20.50
2019-01-23T17:29:02.539Z,20.50
2019-01-23T17:32:16.985Z,20.50
2019-01-23T17:35:24.475Z,20.60
2019-01-23T17:38:33.707Z,20.50
2019-01-23T17:41:31.056Z,20.50
2019-01-23T17:44:54.647Z,20.50
2019-01-23T17:48:14.698Z,20.50
2019-01-23T17:51:24.165Z,20.50
2019-01-23T17:54:16.101Z,20.50
2019-01-23T17:57:24.469Z,20.50
2019-01-23T18:00:47.617Z,20.50
2019-01-23T18:03:56.640Z,20.50
2019-01-23T18:07:11.370Z,20.50
2019-01-23T18:10:17.383Z,20.50
2019-01-23T18:13:19.648Z,20.50
2019-01-23T18:16:25.193Z,20.50
2019-01-23T18:19:37.264Z,20.50
2019-01-23T18:22:47.670Z,20.50
2019-01-23T18:25:39.088Z,20.50
2019-01-23T18:28:43.896Z,20.50
2019-01-23T18:32:00.678Z,20.50
2019-01-23T18:35:14.123Z,20.50
2019-01-23T18:38:41.584Z,20.50
2019-01-23T18:42:07.088Z,20.50
2019-01-23T18:45:46.887Z,20.50
2019-01-23T18:49:14.887Z,20.50
2019-01-23T18:52:31.871Z,20.50
2019-01-23T18:55:50.390Z,20.50
2019-01-23T18:59:08.084Z,20.50
2019-01-23T19:02:17.155Z,20.40
2019-01-23T19:05:22.816Z,20.50
2019-01-23T19:08:34.493Z,20.40
2019-01-23T19:11:54.431Z,20.50
2019-01-23T19:15:02.483Z,20.40
2019-01-23T19:18:12.397Z,20.50
2019-01-23T19:21:30.191Z,20.40
2019-01-23T19:24:44.776Z,20.40
2019-01-23T19:27:31.598Z,20.40
2019-01-23T19:30:40.319Z,20.40
2019-01-23T19:33:56.624Z,20.40
2019-01-23T19:37:15.061Z,20.40
2019-01-23T19:40:29.017Z,20.40
2019-01-23T19:43:28.643Z,20.40
2019-01-23T19:49:43.726Z,20.40
2019-01-23T19:52:53.544Z,20.40
2019-01-23T19:56:12.201Z,20.40
2019-01-23T19:59:03.605Z,20.40
2019-01-23T20:02:33.132Z,20.40
2019-01-23T20:05:25.628Z,20.40
2019-01-23T20:08:41.388Z,20.40
2019-01-23T20:11:46.834Z,20.30
2019-01-23T20:14:54.838Z,20.40
2019-01-23T20:17:46.010Z,20.30
2019-01-23T20:20:40.038Z,20.30
2019-01-23T20:23:34.098Z,20.40
2019-01-23T20:26:25.823Z,20.30
2019-01-23T20:29:17.311Z,20.40
2019-01-23T20:32:09.391Z,20.40
2019-01-23T20:35:05.783Z,20.30
2019-01-23T20:37:58.904Z,20.30
2019-01-23T20:40:50.307Z,20.40
2019-01-23T20:43:42.420Z,20.30
2019-01-23T20:46:34.531Z,20.30
2019-01-23T20:49:28.715Z,20.30
2019-01-23T20:52:21.403Z,20.30
2019-01-23T20:55:14.150Z,20.30
2019-01-23T20:58:09.115Z,20.40
2019-01-23T21:01:02.031Z,20.30
2019-01-23T21:03:55.993Z,20.30
2019-01-23T21:06:47.941Z,20.30
2019-01-23T21:09:39.589Z,20.30
2019-01-23T21:12:31.789Z,20.30
2019-01-23T21:15:25.754Z,20.30
2019-01-23T21:18:18.679Z,20.30
2019-01-23T21:21:10.448Z,20.30
2019-01-23T21:24:03.899Z,20.30
2019-01-23T21:27:07.402Z,20.30
2019-01-23T21:30:01.202Z,20.30
2019-01-23T21:32:55.882Z,20.30
2019-01-23T21:35:50.230Z,20.30
2019-01-23T21:38:42.286Z,20.30
2019-01-23T21:41:34.868Z,20.30
2019-01-23T21:44:26.725Z,20.30
2019-01-23T21:47:20.376Z,20.30
2019-01-23T21:50:17.496Z,20.30
2019-01-23T21:53:09.389Z,20.30
2019-01-23T21:56:06.718Z,20.30
2019-01-23T21:59:00.713Z,20.30
2019-01-23T22:01:55.023Z,20.20
2019-01-23T22:04:52.974Z,20.30
2019-01-23T22:07:45.723Z,20.30
2019-01-23T22:10:37.597Z,20.20
2019-01-23T22:13:29.366Z,20.20
2019-01-23T22:16:21.530Z,20.30
2019-01-23T22:19:13.626Z,20.20
2019-01-23T22:22:05.802Z,20.20
2019-01-23T22:24:58.781Z,20.20
2019-01-23T22:28:02.478Z,20.20
2019-01-23T22:30:55.046Z,20.20
2019-01-23T22:33:47.942Z,20.20
2019-01-23T22:36:39.157Z,20.20
2019-01-23T22:39:31.614Z,20.20
2019-01-23T22:42:30.087Z,20.20
2019-01-23T22:45:22.442Z,20.20
2019-01-23T22:48:20.910Z,20.20
2019-01-23T22:51:14.294Z,20.20
2019-01-23T22:54:07.426Z,20.20
2019-01-23T22:56:58.906Z,20.20
2019-01-23T22:59:51.439Z,20.20
2019-01-23T23:02:43.254Z,20.20
2019-01-23T23:05:37.316Z,20.20
2019-01-23T23:08:28.968Z,20.20
2019-01-23T23:11:20.118Z,20.20
2019-01-23T23:14:13.270Z,20.20
2019-01-23T23:17:05.388Z,20.20
2019-01-23T23:19:57.644Z,20.20
2019-01-23T23:22:48.991Z,20.20
2019-01-23T23:25:41.455Z,20.20
2019-01-23T23:28:34.731Z,20.10
2019-01-23T23:31:29.741Z,20.10
2019-01-23T23:34:24.450Z,20.20
2019-01-23T23:37:17.598Z,20.10
2019-01-23T23:40:10.169Z,20.10
2019-01-23T23:43:01.898Z,20.10
2019-01-23T23:45:56.206Z,20.10
2019-01-23T23:48:52.507Z,20.10
2019-01-23T23:51:43.859Z,20.10
2019-01-23T23:54:36.692Z,20.10
2019-01-23T23:57:28.996Z,20.10
